createdAt,value
2022-12-08T00:00:22.259Z,3.60
2022-12-08T00:04:58.381Z,3.40
2022-12-08T00:09:24.962Z,3.30
2022-12-08T00:13:41.207Z,3.44
2022-12-08T00:17:57.367Z,3.47
2022-12-08T00:22:14.914Z,3.49
2022-12-08T00:26:31.045Z,3.39
2022-12-08T00:30:47.300Z,3.23
2022-12-08T00:35:03.747Z,3.46
2022-12-08T00:39:20.142Z,3.26
2022-12-08T00:43:36.278Z,3.11
2022-12-08T00:47:52.405Z,3.28
2022-12-08T00:52:08.559Z,3.50
2022-12-08T00:56:25.320Z,3.46
2022-12-08T01:00:42.867Z,3.22
2022-12-08T01:04:59.039Z,3.34
2022-12-08T01:09:16.141Z,3.12
2022-12-08T01:13:32.251Z,3.09
2022-12-08T01:17:48.335Z,3.00
2022-12-08T01:22:04.554Z,3.06
2022-12-08T01:26:20.901Z,3.15
2022-12-08T01:30:39.930Z,3.07
2022-12-08T01:34:56.054Z,2.89
2022-12-08T01:39:17.153Z,3.20
2022-12-08T01:43:55.168Z,2.98
2022-12-08T01:48:25.063Z,3.05
2022-12-08T01:52:49.511Z,2.97
2022-12-08T01:57:09.739Z,3.33
2022-12-08T02:01:26.057Z,3.15
2022-12-08T02:05:42.728Z,3.15
2022-12-08T02:09:58.914Z,3.18
2022-12-08T02:14:15.441Z,3.01
2022-12-08T02:18:43.859Z,3.12
2022-12-08T02:23:25.417Z,3.26
2022-12-08T02:28:06.103Z,3.20
2022-12-08T02:32:40.896Z,2.99
2022-12-08T02:37:19.725Z,3.11
2022-12-08T02:41:38.949Z,3.05
2022-12-08T02:46:02.709Z,3.06
2022-12-08T02:50:19.291Z,2.90
2022-12-08T02:54:36.652Z,2.79
2022-12-08T02:59:23.412Z,2.82
2022-12-08T03:03:52.168Z,2.57
2022-12-08T03:08:17.265Z,2.94
2022-12-08T03:12:48.446Z,3.11
2022-12-08T03:17:04.936Z,2.94
2022-12-08T03:21:22.020Z,2.91
2022-12-08T03:25:43.495Z,3.14
2022-12-08T03:30:00.626Z,2.97
2022-12-08T03:34:17.346Z,2.88
2022-12-08T03:38:45.007Z,2.96
2022-12-08T03:43:01.252Z,3.22
2022-12-08T03:47:17.458Z,3.23
2022-12-08T03:51:33.611Z,3.09
2022-12-08T03:55:49.701Z,3.07
2022-12-08T04:00:07.906Z,3.12
2022-12-08T04:04:24.108Z,2.98
2022-12-08T04:08:40.355Z,3.19
2022-12-08T04:12:57.769Z,3.09
2022-12-08T04:17:13.859Z,3.11
2022-12-08T04:21:29.976Z,3.19
2022-12-08T04:25:46.208Z,3.18
2022-12-08T04:30:02.972Z,2.92
2022-12-08T04:34:19.507Z,3.18
2022-12-08T04:38:35.878Z,3.23
2022-12-08T04:42:52.052Z,3.23
2022-12-08T04:47:08.222Z,3.04
2022-12-08T04:51:24.367Z,2.97
2022-12-08T04:55:43.988Z,3.12
2022-12-08T05:00:00.261Z,2.99
2022-12-08T05:04:16.474Z,3.08
2022-12-08T05:08:33.440Z,2.91
2022-12-08T05:12:49.715Z,2.89
2022-12-08T05:17:09.493Z,3.04
2022-12-08T05:21:26.097Z,3.05
2022-12-08T05:25:42.399Z,3.06
2022-12-08T05:29:58.674Z,3.14
2022-12-08T05:34:14.815Z,3.34
2022-12-08T05:38:31.046Z,3.21
2022-12-08T05:42:47.184Z,3.46
2022-12-08T05:47:03.347Z,3.30
2022-12-08T05:51:22.514Z,3.25
2022-12-08T05:55:38.662Z,3.23
2022-12-08T05:59:54.880Z,3.34
2022-12-08T06:04:11.217Z,3.45
2022-12-08T06:08:27.403Z,3.27
2022-12-08T06:12:43.667Z,3.37
2022-12-08T06:16:59.936Z,3.48
2022-12-08T06:21:16.971Z,3.53
2022-12-08T06:25:33.073Z,3.32
2022-12-08T06:29:49.228Z,3.54
2022-12-08T06:34:06.421Z,3.59
2022-12-08T06:38:22.477Z,3.52
2022-12-08T06:42:44.581Z,3.46
2022-12-08T06:47:00.769Z,3.40
2022-12-08T06:51:21.258Z,3.53
2022-12-08T06:56:06.411Z,3.49
2022-12-08T07:00:14.260Z,3.19
2022-12-08T07:04:30.437Z,3.57
2022-12-08T07:08:46.722Z,3.57
2022-12-08T07:13:03.027Z,3.52
2022-12-08T07:17:19.139Z,3.80
2022-12-08T07:21:35.308Z,3.72
2022-12-08T07:25:51.404Z,3.92
2022-12-08T07:30:08.312Z,3.64
2022-12-08T07:34:26.653Z,3.82
2022-12-08T07:38:43.065Z,3.59
2022-12-08T07:42:59.259Z,3.53
2022-12-08T07:47:15.500Z,3.66
2022-12-08T07:51:31.733Z,4.05
2022-12-08T07:55:47.917Z,3.93
2022-12-08T08:00:05.977Z,3.37
2022-12-08T08:04:22.390Z,3.55
2022-12-08T08:08:38.703Z,3.57
2022-12-08T08:12:57.061Z,3.66
2022-12-08T08:17:15.391Z,3.33
2022-12-08T08:21:46.958Z,3.82
2022-12-08T08:26:05.716Z,3.83
2022-12-08T08:30:21.823Z,4.00
2022-12-08T08:34:38.068Z,4.06
2022-12-08T08:38:59.146Z,4.19
2022-12-08T08:43:34.281Z,4.63
2022-12-08T08:47:52.424Z,4.74
2022-12-08T08:52:08.648Z,4.37
2022-12-08T08:56:25.105Z,4.63
2022-12-08T09:00:43.409Z,4.88
2022-12-08T09:04:59.955Z,5.30
2022-12-08T09:09:19.009Z,5.08
2022-12-08T09:13:35.848Z,5.13
2022-12-08T09:17:54.104Z,5.24
2022-12-08T09:22:14.492Z,5.15
2022-12-08T09:26:32.659Z,5.24
2022-12-08T09:30:48.853Z,5.60
2022-12-08T09:35:05.261Z,5.51
2022-12-08T09:39:21.424Z,5.16
2022-12-08T09:43:58.518Z,5.62
2022-12-08T09:48:21.022Z,5.40
2022-12-08T09:52:57.371Z,5.51
2022-12-08T09:57:17.264Z,5.70
2022-12-08T10:01:38.548Z,5.67
2022-12-08T10:06:33.773Z,5.91
2022-12-08T10:11:00.494Z,5.80
2022-12-08T10:15:43.671Z,5.95
2022-12-08T10:20:10.675Z,5.97
2022-12-08T10:24:39.847Z,5.82
2022-12-08T10:29:01.476Z,5.98
2022-12-08T10:33:21.482Z,5.94
2022-12-08T10:37:38.027Z,6.25
2022-12-08T10:41:54.326Z,6.37
2022-12-08T10:46:16.493Z,6.44
2022-12-08T10:50:42.106Z,6.53
2022-12-08T10:55:00.546Z,6.50
2022-12-08T10:59:22.016Z,6.66
2022-12-08T11:03:55.084Z,6.58
2022-12-08T11:08:11.818Z,6.61
2022-12-08T11:12:29.867Z,6.58
2022-12-08T11:16:50.210Z,6.16
2022-12-08T11:21:18.725Z,6.51
2022-12-08T11:25:34.876Z,6.56
2022-12-08T11:29:51.044Z,6.17
2022-12-08T11:34:14.264Z,6.10
2022-12-08T11:38:32.194Z,6.20
2022-12-08T11:43:02.312Z,5.89
2022-12-08T11:47:28.630Z,6.68
2022-12-08T11:51:52.087Z,6.56
2022-12-08T11:56:14.305Z,6.47
2022-12-08T12:00:30.475Z,6.59
2022-12-08T12:05:47.426Z,6.24
2022-12-08T12:10:46.832Z,6.25
2022-12-08T12:15:14.738Z,5.99
2022-12-08T12:19:37.313Z,5.77
2022-12-08T12:24:36.364Z,5.86
2022-12-08T12:28:59.997Z,6.15
2022-12-08T12:33:17.856Z,5.87
2022-12-08T12:37:39.416Z,6.01
2022-12-08T12:41:59.341Z,6.16
2022-12-08T12:46:24.583Z,5.99
2022-12-08T12:50:53.062Z,5.94
2022-12-08T12:55:12.094Z,5.78
2022-12-08T12:59:46.192Z,6.19
2022-12-08T13:04:13.038Z,6.13
2022-12-08T13:08:29.633Z,6.11
2022-12-08T13:12:56.376Z,6.22
2022-12-08T13:17:16.400Z,5.78
2022-12-08T13:21:42.021Z,5.89
2022-12-08T13:26:26.288Z,5.98
2022-12-08T13:30:44.284Z,6.17
2022-12-08T13:35:03.321Z,6.11
2022-12-08T13:39:34.844Z,6.14
2022-12-08T13:50:49.615Z,5.75
2022-12-08T13:58:27.885Z,5.88
2022-12-08T14:02:51.019Z,6.07
2022-12-08T14:07:09.890Z,5.87
2022-12-08T14:11:36.030Z,5.93
2022-12-08T14:15:52.394Z,5.82
2022-12-08T14:20:20.563Z,6.00
2022-12-08T14:24:36.744Z,6.14
2022-12-08T14:28:53.000Z,5.84
2022-12-08T14:33:17.223Z,5.10
2022-12-08T14:37:37.823Z,5.87
2022-12-08T14:42:00.972Z,5.44
2022-12-08T14:46:24.405Z,5.64
2022-12-08T14:50:44.023Z,5.57
2022-12-08T14:55:02.404Z,5.71
2022-12-08T14:59:30.448Z,5.65
2022-12-08T15:03:51.180Z,5.87
2022-12-08T15:08:10.026Z,5.76
2022-12-08T15:12:29.848Z,5.71
2022-12-08T15:16:45.992Z,5.71
2022-12-08T15:21:05.564Z,5.57
2022-12-08T15:25:23.990Z,5.64
2022-12-08T15:29:40.160Z,5.32
2022-12-08T15:33:58.387Z,5.80
2022-12-08T15:38:29.090Z,5.69
2022-12-08T15:42:45.958Z,5.50
2022-12-08T15:47:04.614Z,5.54
2022-12-08T15:51:20.942Z,5.69
2022-12-08T15:55:39.199Z,5.65
2022-12-08T15:59:56.218Z,5.71
2022-12-08T16:05:00.175Z,5.55
2022-12-08T16:09:11.135Z,5.70
2022-12-08T16:13:57.092Z,5.78
2022-12-08T16:18:24.522Z,5.79
2022-12-08T16:28:00.320Z,5.78
2022-12-08T16:32:10.899Z,5.75
2022-12-08T16:36:27.148Z,5.67
2022-12-08T16:41:08.003Z,5.65
2022-12-08T16:45:29.366Z,5.89
2022-12-08T16:49:45.601Z,5.77
2022-12-08T16:54:03.878Z,5.86
2022-12-08T16:58:20.183Z,5.62
2022-12-08T17:02:36.531Z,5.85
2022-12-08T17:06:55.174Z,5.76
2022-12-08T17:11:21.227Z,5.82
2022-12-08T17:15:38.505Z,5.80
2022-12-08T17:19:55.118Z,5.94
2022-12-08T17:24:13.680Z,6.14
2022-12-08T17:28:58.878Z,5.90
2022-12-08T17:33:08.809Z,5.67
2022-12-08T17:37:25.342Z,5.76
2022-12-08T17:41:42.264Z,5.45
2022-12-08T17:45:59.102Z,5.42
2022-12-08T17:50:15.815Z,5.36
2022-12-08T17:54:32.257Z,5.38
2022-12-08T17:58:54.299Z,5.40
2022-12-08T18:03:11.093Z,5.10
2022-12-08T18:07:27.358Z,5.19
2022-12-08T18:11:44.176Z,5.29
2022-12-08T18:16:00.538Z,5.38
2022-12-08T18:20:17.472Z,5.43
2022-12-08T18:24:33.701Z,5.29
2022-12-08T18:28:50.145Z,5.52
2022-12-08T18:33:07.390Z,5.41
2022-12-08T18:37:23.576Z,5.54
2022-12-08T18:41:39.859Z,5.46
2022-12-08T18:46:05.883Z,5.64
2022-12-08T18:50:24.110Z,5.50
2022-12-08T18:55:05.389Z,5.63
2022-12-08T18:59:16.461Z,5.75
2022-12-08T19:03:32.697Z,5.68
2022-12-08T19:07:49.088Z,5.47
2022-12-08T19:12:05.910Z,5.47
2022-12-08T19:16:23.132Z,5.56
2022-12-08T19:20:39.365Z,5.20
2022-12-08T19:24:55.559Z,5.34
2022-12-08T19:29:12.033Z,5.57
2022-12-08T19:33:28.159Z,5.63
2022-12-08T19:37:44.267Z,5.71
2022-12-08T19:42:19.348Z,5.62
2022-12-08T19:46:40.139Z,5.75
2022-12-08T19:50:57.276Z,5.68
2022-12-08T19:55:14.607Z,5.69
2022-12-08T19:59:30.849Z,5.64
2022-12-08T20:03:47.051Z,5.60
2022-12-08T20:08:03.327Z,5.59
2022-12-08T20:12:19.430Z,5.76
2022-12-08T20:16:35.878Z,5.72
2022-12-08T20:20:52.354Z,5.44
2022-12-08T20:25:12.801Z,5.37
2022-12-08T20:29:29.444Z,5.73
2022-12-08T20:33:45.725Z,5.58
2022-12-08T20:38:01.931Z,5.59
2022-12-08T20:42:19.273Z,5.55
2022-12-08T20:46:35.579Z,5.67
2022-12-08T20:50:52.686Z,5.51
2022-12-08T20:55:09.614Z,5.70
2022-12-08T20:59:27.032Z,5.81
2022-12-08T21:03:44.877Z,5.93
2022-12-08T21:08:01.192Z,5.69
2022-12-08T21:12:17.669Z,5.89
2022-12-08T21:16:33.974Z,5.86
2022-12-08T21:20:51.236Z,5.72
2022-12-08T21:25:08.519Z,5.69
2022-12-08T21:29:24.849Z,6.01
2022-12-08T21:33:41.230Z,5.91
2022-12-08T21:37:57.559Z,5.75
2022-12-08T21:42:34.284Z,5.51
2022-12-08T21:46:51.032Z,5.75
2022-12-08T21:51:07.352Z,5.81
2022-12-08T21:55:23.938Z,5.87
2022-12-08T21:59:40.283Z,5.85
2022-12-08T22:03:56.693Z,6.07
2022-12-08T22:08:12.932Z,5.82
2022-12-08T22:12:29.485Z,5.90
2022-12-08T22:16:45.960Z,5.99
2022-12-08T22:21:07.608Z,6.04
2022-12-08T22:25:23.823Z,5.83
2022-12-08T22:29:39.990Z,6.15
2022-12-08T22:33:56.248Z,5.62
2022-12-08T22:38:12.387Z,5.77
2022-12-08T22:42:28.935Z,5.77
2022-12-08T22:46:45.359Z,5.91
2022-12-08T22:51:02.262Z,5.57
2022-12-08T22:55:18.699Z,5.71
2022-12-08T22:59:34.854Z,5.82
2022-12-08T23:03:51.163Z,5.64
2022-12-08T23:08:08.666Z,5.82
2022-12-08T23:12:24.947Z,5.65
2022-12-08T23:16:41.262Z,5.93
2022-12-08T23:21:02.613Z,5.64
2022-12-08T23:25:19.159Z,5.86
2022-12-08T23:29:35.328Z,5.81
2022-12-08T23:33:51.773Z,5.77
2022-12-08T23:38:08.024Z,5.54
2022-12-08T23:42:24.244Z,5.22
2022-12-08T23:46:40.517Z,5.21
2022-12-08T23:50:57.526Z,5.75
2022-12-08T23:55:13.605Z,5.58
2022-12-08T23:59:31.009Z,5.68
